sensor_id;sensor_type;location;lat;lon;timestamp;P1;durP1;ratioP1;P2;durP2;ratioP2
49015;SDS011;34830;44.064;12.566;2024-01-16T00:00:07;120.07;;;56.53;;
49015;SDS011;34830;44.064;12.566;2024-01-16T00:02:34;116.72;;;56.20;;
49015;SDS011;34830;44.064;12.566;2024-01-16T00:05:00;123.10;;;56.95;;
49015;SDS011;34830;44.064;12.566;2024-01-16T00:07:26;126.63;;;59.15;;
49015;SDS011;34830;44.064;12.566;2024-01-16T00:09:52;117.90;;;53.92;;
49015;SDS011;34830;44.064;12.566;2024-01-16T00:12:20;123.00;;;58.00;;
49015;SDS011;34830;44.064;12.566;2024-01-16T00:14:46;118.38;;;55.10;;
49015;SDS011;34830;44.064;12.566;2024-01-16T00:17:12;126.68;;;55.53;;
49015;SDS011;34830;44.064;12.566;2024-01-16T00:19:38;126.20;;;57.28;;
49015;SDS011;34830;44.064;12.566;2024-01-16T00:22:04;124.70;;;55.63;;
49015;SDS011;34830;44.064;12.566;2024-01-16T00:24:30;115.70;;;54.80;;
49015;SDS011;34830;44.064;12.566;2024-01-16T00:26:57;119.15;;;56.38;;
49015;SDS011;34830;44.064;12.566;2024-01-16T00:29:23;113.38;;;52.72;;
49015;SDS011;34830;44.064;12.566;2024-01-16T00:31:49;121.38;;;53.20;;
49015;SDS011;34830;44.064;12.566;2024-01-16T00:34:15;119.95;;;53.92;;
49015;SDS011;34830;44.064;12.566;2024-01-16T00:36:41;115.13;;;51.30;;
49015;SDS011;34830;44.064;12.566;2024-01-16T00:39:07;113.03;;;52.72;;
49015;SDS011;34830;44.064;12.566;2024-01-16T00:41:33;118.80;;;52.38;;
49015;SDS011;34830;44.064;12.566;2024-01-16T00:44:00;121.35;;;52.47;;
49015;SDS011;34830;44.064;12.566;2024-01-16T00:46:26;116.95;;;52.35;;
49015;SDS011;34830;44.064;12.566;2024-01-16T00:48:52;110.78;;;49.08;;
49015;SDS011;34830;44.064;12.566;2024-01-16T00:51:18;116.88;;;51.00;;
49015;SDS011;34830;44.064;12.566;2024-01-16T00:53:44;114.10;;;50.28;;
49015;SDS011;34830;44.064;12.566;2024-01-16T00:56:10;112.22;;;51.63;;
49015;SDS011;34830;44.064;12.566;2024-01-16T00:58:38;110.90;;;49.55;;
49015;SDS011;34830;44.064;12.566;2024-01-16T01:01:04;107.10;;;48.13;;
49015;SDS011;34830;44.064;12.566;2024-01-16T01:03:30;120.30;;;52.10;;
49015;SDS011;34830;44.064;12.566;2024-01-16T01:05:56;120.57;;;48.78;;
49015;SDS011;34830;44.064;12.566;2024-01-16T01:08:23;120.30;;;50.17;;
49015;SDS011;34830;44.064;12.566;2024-01-16T01:10:49;132.13;;;56.60;;
49015;SDS011;34830;44.064;12.566;2024-01-16T01:13:15;120.43;;;48.42;;
49015;SDS011;34830;44.064;12.566;2024-01-16T01:15:41;111.95;;;48.15;;
49015;SDS011;34830;44.064;12.566;2024-01-16T01:18:07;121.40;;;50.28;;
49015;SDS011;34830;44.064;12.566;2024-01-16T01:20:34;109.95;;;48.53;;
49015;SDS011;34830;44.064;12.566;2024-01-16T01:23:00;117.05;;;49.22;;
49015;SDS011;34830;44.064;12.566;2024-01-16T01:25:26;119.53;;;49.15;;
49015;SDS011;34830;44.064;12.566;2024-01-16T01:27:52;118.43;;;47.45;;
49015;SDS011;34830;44.064;12.566;2024-01-16T01:30:18;107.20;;;46.00;;
49015;SDS011;34830;44.064;12.566;2024-01-16T01:32:44;120.00;;;47.70;;
49015;SDS011;34830;44.064;12.566;2024-01-16T01:35:10;109.57;;;46.50;;
49015;SDS011;34830;44.064;12.566;2024-01-16T01:37:37;116.32;;;45.88;;
49015;SDS011;34830;44.064;12.566;2024-01-16T01:40:04;120.40;;;47.50;;
49015;SDS011;34830;44.064;12.566;2024-01-16T01:42:30;110.00;;;45.20;;
49015;SDS011;34830;44.064;12.566;2024-01-16T01:44:56;107.78;;;44.83;;
49015;SDS011;34830;44.064;12.566;2024-01-16T01:47:22;118.82;;;44.60;;
49015;SDS011;34830;44.064;12.566;2024-01-16T01:49:48;109.90;;;47.58;;
49015;SDS011;34830;44.064;12.566;2024-01-16T01:52:15;107.97;;;45.42;;
49015;SDS011;34830;44.064;12.566;2024-01-16T01:54:41;125.03;;;46.28;;
49015;SDS011;34830;44.064;12.566;2024-01-16T01:57:08;112.25;;;45.03;;
49015;SDS011;34830;44.064;12.566;2024-01-16T01:59:34;118.82;;;47.83;;
49015;SDS011;34830;44.064;12.566;2024-01-16T02:02:00;109.90;;;45.83;;
49015;SDS011;34830;44.064;12.566;2024-01-16T02:04:27;114.57;;;47.53;;
49015;SDS011;34830;44.064;12.566;2024-01-16T02:06:54;115.18;;;48.30;;
49015;SDS011;34830;44.064;12.566;2024-01-16T02:09:22;103.53;;;43.22;;
49015;SDS011;34830;44.064;12.566;2024-01-16T02:11:48;105.15;;;44.55;;
49015;SDS011;34830;44.064;12.566;2024-01-16T02:14:14;105.68;;;39.33;;
49015;SDS011;34830;44.064;12.566;2024-01-16T02:16:41;109.93;;;42.50;;
49015;SDS011;34830;44.064;12.566;2024-01-16T02:19:08;98.65;;;40.65;;
49015;SDS011;34830;44.064;12.566;2024-01-16T02:21:39;111.18;;;44.65;;
49015;SDS011;34830;44.064;12.566;2024-01-16T02:24:07;105.45;;;42.47;;
49015;SDS011;34830;44.064;12.566;2024-01-16T02:26:34;118.10;;;45.40;;
49015;SDS011;34830;44.064;12.566;2024-01-16T02:29:01;101.15;;;40.33;;
49015;SDS011;34830;44.064;12.566;2024-01-16T02:31:28;113.53;;;42.53;;
49015;SDS011;34830;44.064;12.566;2024-01-16T02:33:54;108.05;;;41.75;;
49015;SDS011;34830;44.064;12.566;2024-01-16T02:36:20;101.93;;;41.15;;
49015;SDS011;34830;44.064;12.566;2024-01-16T02:38:46;112.90;;;41.88;;
49015;SDS011;34830;44.064;12.566;2024-01-16T02:41:15;102.78;;;40.83;;
49015;SDS011;34830;44.064;12.566;2024-01-16T02:43:41;105.78;;;41.58;;
49015;SDS011;34830;44.064;12.566;2024-01-16T02:46:08;110.22;;;40.47;;
49015;SDS011;34830;44.064;12.566;2024-01-16T02:48:37;105.80;;;40.10;;
49015;SDS011;34830;44.064;12.566;2024-01-16T02:51:03;105.68;;;40.72;;
49015;SDS011;34830;44.064;12.566;2024-01-16T02:53:30;99.28;;;39.25;;
49015;SDS011;34830;44.064;12.566;2024-01-16T02:55:56;100.25;;;41.05;;
49015;SDS011;34830;44.064;12.566;2024-01-16T02:58:25;111.95;;;42.10;;
49015;SDS011;34830;44.064;12.566;2024-01-16T03:00:55;94.97;;;39.13;;
49015;SDS011;34830;44.064;12.566;2024-01-16T03:03:21;94.65;;;36.80;;
49015;SDS011;34830;44.064;12.566;2024-01-16T03:05:47;101.70;;;41.38;;
49015;SDS011;34830;44.064;12.566;2024-01-16T03:08:13;105.13;;;40.55;;
49015;SDS011;34830;44.064;12.566;2024-01-16T03:10:40;98.60;;;37.10;;
49015;SDS011;34830;44.064;12.566;2024-01-16T03:13:06;98.28;;;40.42;;
49015;SDS011;34830;44.064;12.566;2024-01-16T03:15:32;97.85;;;39.80;;
49015;SDS011;34830;44.064;12.566;2024-01-16T03:17:58;105.53;;;41.75;;
49015;SDS011;34830;44.064;12.566;2024-01-16T03:20:25;88.80;;;37.50;;
49015;SDS011;34830;44.064;12.566;2024-01-16T03:22:52;98.15;;;38.55;;
49015;SDS011;34830;44.064;12.566;2024-01-16T03:25:19;91.63;;;38.83;;
49015;SDS011;34830;44.064;12.566;2024-01-16T03:27:45;91.20;;;37.03;;
49015;SDS011;34830;44.064;12.566;2024-01-16T03:30:11;83.57;;;35.47;;
49015;SDS011;34830;44.064;12.566;2024-01-16T03:32:38;84.10;;;34.53;;
49015;SDS011;34830;44.064;12.566;2024-01-16T03:35:04;90.07;;;37.45;;
49015;SDS011;34830;44.064;12.566;2024-01-16T03:37:31;81.28;;;36.50;;
49015;SDS011;34830;44.064;12.566;2024-01-16T03:39:58;92.60;;;37.70;;
49015;SDS011;34830;44.064;12.566;2024-01-16T03:42:24;87.43;;;38.58;;
49015;SDS011;34830;44.064;12.566;2024-01-16T03:44:50;91.05;;;39.00;;
49015;SDS011;34830;44.064;12.566;2024-01-16T03:47:17;86.00;;;36.28;;
49015;SDS011;34830;44.064;12.566;2024-01-16T03:49:43;82.93;;;38.45;;
49015;SDS011;34830;44.064;12.566;2024-01-16T03:52:09;78.72;;;34.45;;
49015;SDS011;34830;44.064;12.566;2024-01-16T03:54:35;80.22;;;35.10;;
49015;SDS011;34830;44.064;12.566;2024-01-16T03:57:01;77.10;;;34.47;;
49015;SDS011;34830;44.064;12.566;2024-01-16T03:59:27;86.60;;;37.65;;
49015;SDS011;34830;44.064;12.566;2024-01-16T04:01:53;82.40;;;37.00;;
49015;SDS011;34830;44.064;12.566;2024-01-16T04:04:19;83.10;;;34.50;;
49015;SDS011;34830;44.064;12.566;2024-01-16T04:06:46;88.60;;;36.88;;
49015;SDS011;34830;44.064;12.566;2024-01-16T04:09:12;79.47;;;35.30;;
49015;SDS011;34830;44.064;12.566;2024-01-16T04:11:40;79.25;;;35.42;;
49015;SDS011;34830;44.064;12.566;2024-01-16T04:14:06;75.07;;;33.40;;
49015;SDS011;34830;44.064;12.566;2024-01-16T04:16:32;76.50;;;35.38;;
49015;SDS011;34830;44.064;12.566;2024-01-16T04:18:58;81.47;;;35.80;;
49015;SDS011;34830;44.064;12.566;2024-01-16T04:21:25;84.68;;;35.35;;
49015;SDS011;34830;44.064;12.566;2024-01-16T04:23:51;83.38;;;34.63;;
49015;SDS011;34830;44.064;12.566;2024-01-16T04:26:17;74.57;;;33.30;;
49015;SDS011;34830;44.064;12.566;2024-01-16T04:28:43;69.25;;;33.13;;
49015;SDS011;34830;44.064;12.566;2024-01-16T04:31:10;71.55;;;33.08;;
49015;SDS011;34830;44.064;12.566;2024-01-16T04:33:37;69.20;;;33.90;;
49015;SDS011;34830;44.064;12.566;2024-01-16T04:36:04;82.38;;;32.45;;
49015;SDS011;34830;44.064;12.566;2024-01-16T04:38:31;75.00;;;32.95;;
49015;SDS011;34830;44.064;12.566;2024-01-16T04:40:57;68.30;;;33.40;;
49015;SDS011;34830;44.064;12.566;2024-01-16T04:43:27;69.03;;;31.23;;
49015;SDS011;34830;44.064;12.566;2024-01-16T04:45:53;71.80;;;32.22;;
49015;SDS011;34830;44.064;12.566;2024-01-16T04:48:19;71.47;;;31.60;;
49015;SDS011;34830;44.064;12.566;2024-01-16T04:50:45;70.57;;;32.22;;
49015;SDS011;34830;44.064;12.566;2024-01-16T04:53:11;64.25;;;29.52;;
49015;SDS011;34830;44.064;12.566;2024-01-16T04:55:37;68.43;;;31.00;;
49015;SDS011;34830;44.064;12.566;2024-01-16T04:58:03;67.70;;;31.42;;
49015;SDS011;34830;44.064;12.566;2024-01-16T05:00:30;71.43;;;31.52;;
49015;SDS011;34830;44.064;12.566;2024-01-16T05:02:56;69.45;;;31.02;;
49015;SDS011;34830;44.064;12.566;2024-01-16T05:05:23;59.17;;;29.42;;
49015;SDS011;34830;44.064;12.566;2024-01-16T05:07:49;60.30;;;28.50;;
49015;SDS011;34830;44.064;12.566;2024-01-16T05:10:15;71.28;;;32.95;;
49015;SDS011;34830;44.064;12.566;2024-01-16T05:12:41;67.15;;;30.75;;
49015;SDS011;34830;44.064;12.566;2024-01-16T05:15:08;65.30;;;31.98;;
49015;SDS011;34830;44.064;12.566;2024-01-16T05:17:34;63.58;;;30.08;;
49015;SDS011;34830;44.064;12.566;2024-01-16T05:20:01;65.00;;;29.55;;
49015;SDS011;34830;44.064;12.566;2024-01-16T05:22:29;62.05;;;29.55;;
49015;SDS011;34830;44.064;12.566;2024-01-16T05:24:55;64.88;;;30.63;;
49015;SDS011;34830;44.064;12.566;2024-01-16T05:27:23;66.10;;;29.77;;
49015;SDS011;34830;44.064;12.566;2024-01-16T05:29:49;67.38;;;30.67;;
49015;SDS011;34830;44.064;12.566;2024-01-16T05:32:15;66.85;;;31.73;;
49015;SDS011;34830;44.064;12.566;2024-01-16T05:34:41;65.10;;;29.38;;
49015;SDS011;34830;44.064;12.566;2024-01-16T05:37:07;72.78;;;34.38;;
49015;SDS011;34830;44.064;12.566;2024-01-16T05:39:33;74.38;;;32.15;;
49015;SDS011;34830;44.064;12.566;2024-01-16T05:41:59;69.55;;;33.08;;
49015;SDS011;34830;44.064;12.566;2024-01-16T05:44:25;67.05;;;33.78;;
49015;SDS011;34830;44.064;12.566;2024-01-16T05:46:52;64.93;;;31.30;;
49015;SDS011;34830;44.064;12.566;2024-01-16T05:49:18;64.03;;;31.80;;
49015;SDS011;34830;44.064;12.566;2024-01-16T05:51:44;61.95;;;30.20;;
49015;SDS011;34830;44.064;12.566;2024-01-16T05:54:10;54.50;;;29.17;;
49015;SDS011;34830;44.064;12.566;2024-01-16T05:56:36;63.47;;;31.00;;
49015;SDS011;34830;44.064;12.566;2024-01-16T05:59:02;65.63;;;31.42;;
49015;SDS011;34830;44.064;12.566;2024-01-16T06:01:28;64.47;;;34.13;;
49015;SDS011;34830;44.064;12.566;2024-01-16T06:03:55;70.90;;;33.42;;
49015;SDS011;34830;44.064;12.566;2024-01-16T06:06:21;67.13;;;33.47;;
49015;SDS011;34830;44.064;12.566;2024-01-16T06:08:47;61.65;;;31.80;;
49015;SDS011;34830;44.064;12.566;2024-01-16T06:11:13;67.35;;;33.65;;
49015;SDS011;34830;44.064;12.566;2024-01-16T06:13:39;63.80;;;33.25;;
49015;SDS011;34830;44.064;12.566;2024-01-16T06:16:06;70.10;;;34.53;;
49015;SDS011;34830;44.064;12.566;2024-01-16T06:18:34;76.70;;;35.95;;
49015;SDS011;34830;44.064;12.566;2024-01-16T06:21:01;67.07;;;33.47;;
49015;SDS011;34830;44.064;12.566;2024-01-16T06:23:28;62.05;;;34.03;;
49015;SDS011;34830;44.064;12.566;2024-01-16T06:25:55;74.70;;;37.97;;
49015;SDS011;34830;44.064;12.566;2024-01-16T06:28:21;71.90;;;36.95;;
49015;SDS011;34830;44.064;12.566;2024-01-16T06:30:47;74.50;;;37.78;;
49015;SDS011;34830;44.064;12.566;2024-01-16T06:33:13;73.70;;;40.03;;
49015;SDS011;34830;44.064;12.566;2024-01-16T06:35:40;77.32;;;39.85;;
49015;SDS011;34830;44.064;12.566;2024-01-16T06:38:06;71.50;;;37.67;;
49015;SDS011;34830;44.064;12.566;2024-01-16T06:40:32;73.78;;;36.67;;
49015;SDS011;34830;44.064;12.566;2024-01-16T06:42:58;85.47;;;40.10;;
49015;SDS011;34830;44.064;12.566;2024-01-16T06:45:24;73.78;;;38.70;;
49015;SDS011;34830;44.064;12.566;2024-01-16T06:47:52;77.47;;;39.25;;
49015;SDS011;34830;44.064;12.566;2024-01-16T06:50:18;67.45;;;39.17;;
49015;SDS011;34830;44.064;12.566;2024-01-16T06:52:45;78.90;;;42.92;;
49015;SDS011;34830;44.064;12.566;2024-01-16T06:55:11;81.15;;;42.17;;
49015;SDS011;34830;44.064;12.566;2024-01-16T06:57:37;82.43;;;42.22;;
49015;SDS011;34830;44.064;12.566;2024-01-16T07:00:03;82.97;;;43.50;;
49015;SDS011;34830;44.064;12.566;2024-01-16T07:02:32;86.00;;;45.65;;
49015;SDS011;34830;44.064;12.566;2024-01-16T07:04:58;89.20;;;45.17;;
49015;SDS011;34830;44.064;12.566;2024-01-16T07:07:25;81.15;;;44.72;;
49015;SDS011;34830;44.064;12.566;2024-01-16T07:09:51;79.38;;;43.72;;
49015;SDS011;34830;44.064;12.566;2024-01-16T07:12:17;82.72;;;44.40;;
49015;SDS011;34830;44.064;12.566;2024-01-16T07:14:44;90.15;;;44.72;;
49015;SDS011;34830;44.064;12.566;2024-01-16T07:17:10;91.40;;;46.55;;
49015;SDS011;34830;44.064;12.566;2024-01-16T07:19:36;85.72;;;44.88;;
49015;SDS011;34830;44.064;12.566;2024-01-16T07:22:02;88.57;;;46.58;;
49015;SDS011;34830;44.064;12.566;2024-01-16T07:24:30;91.63;;;45.38;;
49015;SDS011;34830;44.064;12.566;2024-01-16T07:26:56;89.25;;;46.25;;
49015;SDS011;34830;44.064;12.566;2024-01-16T07:29:22;92.00;;;45.80;;
49015;SDS011;34830;44.064;12.566;2024-01-16T07:31:48;95.28;;;48.22;;
49015;SDS011;34830;44.064;12.566;2024-01-16T07:34:14;91.57;;;49.35;;
49015;SDS011;34830;44.064;12.566;2024-01-16T07:36:45;90.22;;;46.97;;
49015;SDS011;34830;44.064;12.566;2024-01-16T07:39:11;86.88;;;45.10;;
49015;SDS011;34830;44.064;12.566;2024-01-16T07:41:37;84.90;;;46.38;;
49015;SDS011;34830;44.064;12.566;2024-01-16T07:44:04;91.80;;;44.80;;
49015;SDS011;34830;44.064;12.566;2024-01-16T07:46:30;87.13;;;46.03;;
49015;SDS011;34830;44.064;12.566;2024-01-16T07:48:56;83.18;;;44.63;;
49015;SDS011;34830;44.064;12.566;2024-01-16T07:51:22;82.43;;;46.28;;
49015;SDS011;34830;44.064;12.566;2024-01-16T07:53:50;86.50;;;46.28;;
49015;SDS011;34830;44.064;12.566;2024-01-16T07:56:17;76.20;;;42.60;;
49015;SDS011;34830;44.064;12.566;2024-01-16T07:58:43;75.53;;;41.88;;
49015;SDS011;34830;44.064;12.566;2024-01-16T08:01:09;80.85;;;44.15;;
49015;SDS011;34830;44.064;12.566;2024-01-16T08:03:35;76.57;;;43.47;;
49015;SDS011;34830;44.064;12.566;2024-01-16T08:06:02;77.88;;;42.33;;
49015;SDS011;34830;44.064;12.566;2024-01-16T08:08:28;84.03;;;45.33;;
49015;SDS011;34830;44.064;12.566;2024-01-16T08:10:54;81.07;;;43.45;;
49015;SDS011;34830;44.064;12.566;2024-01-16T08:13:21;82.65;;;43.45;;
49015;SDS011;34830;44.064;12.566;2024-01-16T08:15:47;78.15;;;43.08;;
49015;SDS011;34830;44.064;12.566;2024-01-16T08:18:14;76.05;;;41.22;;
49015;SDS011;34830;44.064;12.566;2024-01-16T08:20:41;80.82;;;42.33;;
49015;SDS011;34830;44.064;12.566;2024-01-16T08:23:07;82.20;;;43.58;;
49015;SDS011;34830;44.064;12.566;2024-01-16T08:25:33;86.05;;;44.95;;
49015;SDS011;34830;44.064;12.566;2024-01-16T08:27:59;79.47;;;43.63;;
49015;SDS011;34830;44.064;12.566;2024-01-16T08:30:26;72.78;;;40.78;;
49015;SDS011;34830;44.064;12.566;2024-01-16T08:32:52;72.07;;;41.05;;
49015;SDS011;34830;44.064;12.566;2024-01-16T08:35:18;77.05;;;42.13;;
49015;SDS011;34830;44.064;12.566;2024-01-16T08:37:44;69.13;;;38.75;;
49015;SDS011;34830;44.064;12.566;2024-01-16T08:40:11;71.35;;;39.75;;
49015;SDS011;34830;44.064;12.566;2024-01-16T08:42:37;74.80;;;39.47;;
49015;SDS011;34830;44.064;12.566;2024-01-16T08:45:03;75.40;;;43.15;;
49015;SDS011;34830;44.064;12.566;2024-01-16T08:47:30;72.57;;;39.88;;
49015;SDS011;34830;44.064;12.566;2024-01-16T08:49:57;68.05;;;36.67;;
49015;SDS011;34830;44.064;12.566;2024-01-16T08:52:23;66.88;;;39.40;;
49015;SDS011;34830;44.064;12.566;2024-01-16T08:54:49;63.28;;;36.45;;
49015;SDS011;34830;44.064;12.566;2024-01-16T08:57:15;65.95;;;37.28;;
49015;SDS011;34830;44.064;12.566;2024-01-16T08:59:41;72.45;;;38.58;;
49015;SDS011;34830;44.064;12.566;2024-01-16T09:02:07;71.55;;;39.00;;
49015;SDS011;34830;44.064;12.566;2024-01-16T09:04:34;68.10;;;39.58;;
49015;SDS011;34830;44.064;12.566;2024-01-16T09:07:00;73.25;;;38.47;;
49015;SDS011;34830;44.064;12.566;2024-01-16T09:09:26;63.20;;;38.25;;
49015;SDS011;34830;44.064;12.566;2024-01-16T09:11:52;67.72;;;38.33;;
49015;SDS011;34830;44.064;12.566;2024-01-16T09:14:18;68.55;;;39.38;;
49015;SDS011;34830;44.064;12.566;2024-01-16T09:16:46;67.13;;;40.80;;
49015;SDS011;34830;44.064;12.566;2024-01-16T09:19:12;65.50;;;39.10;;
49015;SDS011;34830;44.064;12.566;2024-01-16T09:21:38;68.35;;;40.15;;
49015;SDS011;34830;44.064;12.566;2024-01-16T09:24:04;70.72;;;42.00;;
49015;SDS011;34830;44.064;12.566;2024-01-16T09:26:30;71.43;;;38.08;;
49015;SDS011;34830;44.064;12.566;2024-01-16T09:28:57;72.88;;;41.05;;
49015;SDS011;34830;44.064;12.566;2024-01-16T09:31:23;66.28;;;39.08;;
49015;SDS011;34830;44.064;12.566;2024-01-16T09:33:49;73.85;;;41.85;;
49015;SDS011;34830;44.064;12.566;2024-01-16T09:36:15;69.82;;;42.10;;
49015;SDS011;34830;44.064;12.566;2024-01-16T09:38:41;76.38;;;44.95;;
49015;SDS011;34830;44.064;12.566;2024-01-16T09:41:07;70.72;;;41.95;;
49015;SDS011;34830;44.064;12.566;2024-01-16T09:43:33;74.18;;;43.00;;
49015;SDS011;34830;44.064;12.566;2024-01-16T09:46:00;73.18;;;41.05;;
49015;SDS011;34830;44.064;12.566;2024-01-16T09:48:30;71.72;;;42.13;;
49015;SDS011;34830;44.064;12.566;2024-01-16T09:50:57;72.22;;;42.17;;
49015;SDS011;34830;44.064;12.566;2024-01-16T09:53:23;79.40;;;46.25;;
49015;SDS011;34830;44.064;12.566;2024-01-16T09:55:50;79.75;;;45.80;;
49015;SDS011;34830;44.064;12.566;2024-01-16T09:58:17;72.50;;;45.17;;
49015;SDS011;34830;44.064;12.566;2024-01-16T10:00:45;82.50;;;46.53;;
49015;SDS011;34830;44.064;12.566;2024-01-16T10:03:12;72.60;;;44.22;;
49015;SDS011;34830;44.064;12.566;2024-01-16T10:05:39;78.80;;;45.28;;
49015;SDS011;34830;44.064;12.566;2024-01-16T10:08:06;76.80;;;45.38;;
49015;SDS011;34830;44.064;12.566;2024-01-16T10:10:33;78.80;;;45.80;;
49015;SDS011;34830;44.064;12.566;2024-01-16T10:13:00;79.43;;;48.00;;
49015;SDS011;34830;44.064;12.566;2024-01-16T10:15:26;88.95;;;48.63;;
49015;SDS011;34830;44.064;12.566;2024-01-16T10:17:52;78.15;;;46.35;;
49015;SDS011;34830;44.064;12.566;2024-01-16T10:20:31;88.88;;;49.17;;
49015;SDS011;34830;44.064;12.566;2024-01-16T10:22:58;68.40;;;41.45;;
49015;SDS011;34830;44.064;12.566;2024-01-16T10:25:24;67.80;;;39.05;;
49015;SDS011;34830;44.064;12.566;2024-01-16T10:28:02;66.65;;;40.65;;
49015;SDS011;34830;44.064;12.566;2024-01-16T10:30:29;65.75;;;40.10;;
49015;SDS011;34830;44.064;12.566;2024-01-16T10:32:55;69.40;;;39.03;;
49015;SDS011;34830;44.064;12.566;2024-01-16T10:35:23;73.22;;;41.60;;
49015;SDS011;34830;44.064;12.566;2024-01-16T10:37:50;73.38;;;39.80;;
49015;SDS011;34830;44.064;12.566;2024-01-16T10:40:17;74.90;;;42.35;;
49015;SDS011;34830;44.064;12.566;2024-01-16T10:43:02;70.63;;;39.95;;
49015;SDS011;34830;44.064;12.566;2024-01-16T10:45:29;68.28;;;40.13;;
49015;SDS011;34830;44.064;12.566;2024-01-16T10:48:06;70.95;;;41.47;;
49015;SDS011;34830;44.064;12.566;2024-01-16T10:50:33;69.68;;;41.20;;
49015;SDS011;34830;44.064;12.566;2024-01-16T10:53:03;75.25;;;42.67;;
49015;SDS011;34830;44.064;12.566;2024-01-16T10:55:31;65.50;;;41.95;;
49015;SDS011;34830;44.064;12.566;2024-01-16T10:57:58;75.55;;;43.15;;
49015;SDS011;34830;44.064;12.566;2024-01-16T11:00:26;76.55;;;44.88;;
49015;SDS011;34830;44.064;12.566;2024-01-16T11:03:04;79.05;;;45.65;;
49015;SDS011;34830;44.064;12.566;2024-01-16T11:05:31;75.60;;;45.25;;
49015;SDS011;34830;44.064;12.566;2024-01-16T11:07:59;79.68;;;47.33;;
49015;SDS011;34830;44.064;12.566;2024-01-16T11:10:29;81.93;;;48.47;;
49015;SDS011;34830;44.064;12.566;2024-01-16T11:12:59;89.15;;;49.88;;
49015;SDS011;34830;44.064;12.566;2024-01-16T11:15:27;78.65;;;48.42;;
49015;SDS011;34830;44.064;12.566;2024-01-16T11:17:57;83.55;;;49.10;;
49015;SDS011;34830;44.064;12.566;2024-01-16T11:20:25;83.53;;;49.20;;
49015;SDS011;34830;44.064;12.566;2024-01-16T11:22:52;82.13;;;48.55;;
49015;SDS011;34830;44.064;12.566;2024-01-16T11:25:31;81.07;;;47.65;;
49015;SDS011;34830;44.064;12.566;2024-01-16T11:28:14;88.90;;;50.72;;
49015;SDS011;34830;44.064;12.566;2024-01-16T11:33:06;81.88;;;47.40;;
49015;SDS011;34830;44.064;12.566;2024-01-16T11:35:37;84.43;;;48.92;;
49015;SDS011;34830;44.064;12.566;2024-01-16T11:38:04;79.85;;;47.65;;
49015;SDS011;34830;44.064;12.566;2024-01-16T11:40:52;84.80;;;48.80;;
49015;SDS011;34830;44.064;12.566;2024-01-16T11:45:58;93.07;;;49.40;;
49015;SDS011;34830;44.064;12.566;2024-01-16T11:48:25;79.38;;;47.33;;
49015;SDS011;34830;44.064;12.566;2024-01-16T11:50:52;93.68;;;48.28;;
49015;SDS011;34830;44.064;12.566;2024-01-16T12:01:33;82.95;;;47.20;;
49015;SDS011;34830;44.064;12.566;2024-01-16T12:04:01;82.47;;;47.83;;
49015;SDS011;34830;44.064;12.566;2024-01-16T12:06:31;82.82;;;48.78;;
49015;SDS011;34830;44.064;12.566;2024-01-16T12:09:16;79.95;;;48.63;;
49015;SDS011;34830;44.064;12.566;2024-01-16T12:11:43;83.43;;;47.83;;
49015;SDS011;34830;44.064;12.566;2024-01-16T12:14:14;90.47;;;48.70;;
49015;SDS011;34830;44.064;12.566;2024-01-16T12:16:40;82.00;;;47.58;;
49015;SDS011;34830;44.064;12.566;2024-01-16T12:19:09;80.53;;;48.72;;
49015;SDS011;34830;44.064;12.566;2024-01-16T12:21:39;82.78;;;46.85;;
49015;SDS011;34830;44.064;12.566;2024-01-16T12:24:09;78.90;;;46.37;;
49015;SDS011;34830;44.064;12.566;2024-01-16T12:26:36;86.88;;;50.75;;
49015;SDS011;34830;44.064;12.566;2024-01-16T12:29:02;88.65;;;49.95;;
49015;SDS011;34830;44.064;12.566;2024-01-16T12:31:29;93.70;;;52.22;;
49015;SDS011;34830;44.064;12.566;2024-01-16T12:34:07;89.18;;;52.90;;
49015;SDS011;34830;44.064;12.566;2024-01-16T12:36:34;90.63;;;54.25;;
49015;SDS011;34830;44.064;12.566;2024-01-16T12:39:00;91.53;;;54.30;;
49015;SDS011;34830;44.064;12.566;2024-01-16T12:41:28;88.20;;;53.17;;
49015;SDS011;34830;44.064;12.566;2024-01-16T12:43:57;89.60;;;52.03;;
49015;SDS011;34830;44.064;12.566;2024-01-16T12:46:23;92.30;;;53.70;;
49015;SDS011;34830;44.064;12.566;2024-01-16T12:48:49;85.18;;;50.67;;
49015;SDS011;34830;44.064;12.566;2024-01-16T12:51:22;87.43;;;49.22;;
49015;SDS011;34830;44.064;12.566;2024-01-16T12:53:48;94.20;;;51.20;;
49015;SDS011;34830;44.064;12.566;2024-01-16T12:56:17;92.00;;;51.15;;
49015;SDS011;34830;44.064;12.566;2024-01-16T12:58:44;93.20;;;50.38;;
49015;SDS011;34830;44.064;12.566;2024-01-16T13:01:24;92.78;;;53.60;;
49015;SDS011;34830;44.064;12.566;2024-01-16T13:03:54;91.75;;;51.03;;
49015;SDS011;34830;44.064;12.566;2024-01-16T13:06:21;86.28;;;50.30;;
49015;SDS011;34830;44.064;12.566;2024-01-16T13:08:49;83.78;;;52.28;;
49015;SDS011;34830;44.064;12.566;2024-01-16T13:11:16;97.93;;;55.38;;
49015;SDS011;34830;44.064;12.566;2024-01-16T13:13:46;94.85;;;55.08;;
49015;SDS011;34830;44.064;12.566;2024-01-16T13:16:17;92.03;;;55.35;;
49015;SDS011;34830;44.064;12.566;2024-01-16T13:18:43;97.72;;;56.75;;
49015;SDS011;34830;44.064;12.566;2024-01-16T13:21:09;103.72;;;55.95;;
49015;SDS011;34830;44.064;12.566;2024-01-16T13:23:35;95.43;;;57.75;;
49015;SDS011;34830;44.064;12.566;2024-01-16T13:26:01;97.40;;;57.55;;
49015;SDS011;34830;44.064;12.566;2024-01-16T13:28:30;101.20;;;58.95;;
49015;SDS011;34830;44.064;12.566;2024-01-16T13:30:56;100.57;;;57.20;;
49015;SDS011;34830;44.064;12.566;2024-01-16T13:33:22;100.50;;;59.17;;
49015;SDS011;34830;44.064;12.566;2024-01-16T13:35:52;93.45;;;55.58;;
49015;SDS011;34830;44.064;12.566;2024-01-16T13:38:20;98.03;;;53.75;;
49015;SDS011;34830;44.064;12.566;2024-01-16T13:40:47;98.65;;;57.15;;
49015;SDS011;34830;44.064;12.566;2024-01-16T13:43:13;102.85;;;63.30;;
49015;SDS011;34830;44.064;12.566;2024-01-16T13:45:39;105.88;;;63.63;;
49015;SDS011;34830;44.064;12.566;2024-01-16T13:48:07;105.22;;;62.45;;
49015;SDS011;34830;44.064;12.566;2024-01-16T13:50:33;103.18;;;59.78;;
49015;SDS011;34830;44.064;12.566;2024-01-16T13:53:00;100.32;;;57.88;;
49015;SDS011;34830;44.064;12.566;2024-01-16T13:55:27;99.35;;;61.30;;
49015;SDS011;34830;44.064;12.566;2024-01-16T13:57:54;98.43;;;58.63;;
49015;SDS011;34830;44.064;12.566;2024-01-16T14:00:20;99.63;;;58.67;;
49015;SDS011;34830;44.064;12.566;2024-01-16T14:02:46;99.50;;;60.10;;
49015;SDS011;34830;44.064;12.566;2024-01-16T14:05:14;103.18;;;60.80;;
49015;SDS011;34830;44.064;12.566;2024-01-16T14:07:41;103.97;;;61.17;;
49015;SDS011;34830;44.064;12.566;2024-01-16T14:10:08;102.22;;;59.90;;
49015;SDS011;34830;44.064;12.566;2024-01-16T14:12:38;109.22;;;61.30;;
49015;SDS011;34830;44.064;12.566;2024-01-16T14:15:05;115.65;;;63.00;;
49015;SDS011;34830;44.064;12.566;2024-01-16T14:17:35;104.35;;;60.92;;